Milton Frwtr, Oregon
Current Conditions -  °F | °C
As of 5:53 PM on Monday 20 Oct 2014 (Local Time) from KALW Reporting Station
Overcast Overcast  
Wind Chill: 64°   Ceiling: 6000
Heat Index: 64°   Visibility: 10mi
Dew Point: 47°   Wind: 15mph
Humidity: 54%   Direction: 250°WSW
Pressure: 29.79"   Gusts: NA
Location:  45.9139°N, 118.202°W
Report Text: KALW 210053Z 25013KT 10SM SCT044 OVC060 18/08 A2979 RMK AO2 SLP088 T01780083
Loading
Personal Weather Stations






























Interactive Weather Map
Tropical Storm Tracking
New forecast layout! Learn more

10-Day Weather Forecast

Advertisements
Track Severe Weather on mobile